Etusivu
METAR-TAF:

METAR-TAF

Lentoasemat :

Taylor County Airport

Medford, Wisconsin, Yhdysvallat

Leveyspiiri: 45-06-04N, Pituuspiiri: 090-18-12W, korkeus merenpinnasta: 448 m

Tämänhetkinen sää

Tämä raportti tehtiin 24 minuuttia sitten, kello 05.15 UTC
Tuuli 5 kn etelästä
Lämpötila 0°C
Kosteus 80%
Ilmanpaine 1009 hPa
Näkyvyys: 16.1 km
selkeää

METAR: KMDZ 190515Z AUTO 19005KT 10SM CLR 00/M03 A2980 RMK AO2 T00021031 TSNO

Aika: 23:39 (05:39 UTC)


TAF: puuttuu

Säähavainnot ja -ennusteet yli 4000 lentoasemalta (METAR- ja TAF-raportit).

Käytössä olevat sääasemat on merkitty karttaan keltaisilla ja punaisilla pisteillä.

Aseta hiiri pisteen päälle nähdäksesi sääaseman nimen.

Klikkaa sitten nähdäksesi säähavainnot ja -ennusteet.

Kartan vaihtaminen: klikkaa mustalla rastilla varustettuja vihreitä pisteitä, niin voit zoomata sisään; viivalla varustettua vihreää pistettä, niin voit zoomata ulos tai vihreitä nuolia, niin pääset viereisille kartoille.


METAR-TAF: